createdAt,value
2019-04-29T00:04:05.952Z,27.10
2019-04-29T00:09:15.591Z,25.90
2019-04-29T00:14:21.330Z,27.07
2019-04-29T00:19:28.719Z,27.07
2019-04-29T00:24:35.647Z,28.17
2019-04-29T00:29:41.411Z,23.53
2019-04-29T00:34:47.452Z,27.10
2019-04-29T00:40:09.903Z,25.90
2019-04-29T00:45:18.478Z,25.13
2019-04-29T00:50:24.227Z,25.37
2019-04-29T00:55:31.663Z,23.47
2019-04-29T01:00:39.932Z,23.67
2019-04-29T01:05:45.762Z,26.43
2019-04-29T01:10:51.445Z,26.07
2019-04-29T01:15:57.040Z,24.07
2019-04-29T01:21:02.559Z,25.97
2019-04-29T01:26:12.652Z,23.53
2019-04-29T01:31:19.877Z,25.90
2019-04-29T01:36:27.246Z,24.57
2019-04-29T01:41:37.649Z,22.43
2019-04-29T01:46:43.380Z,26.47
2019-04-29T01:51:49.138Z,26.40
2019-04-29T01:56:54.737Z,24.87
2019-04-29T02:02:00.356Z,26.77
2019-04-29T02:07:06.024Z,26.80
2019-04-29T02:12:11.702Z,26.07
2019-04-29T02:17:17.524Z,24.60
2019-04-29T02:22:27.613Z,27.47
2019-04-29T02:27:33.243Z,27.10
2019-04-29T02:32:38.906Z,25.33
2019-04-29T02:37:45.342Z,26.47
2019-04-29T02:42:52.762Z,24.47
2019-04-29T02:47:58.281Z,26.27
2019-04-29T02:53:04.040Z,33.10
2019-04-29T02:58:23.510Z,31.80
2019-04-29T03:03:30.940Z,28.80
2019-04-29T03:08:36.501Z,32.20
2019-04-29T03:13:42.853Z,34.00
2019-04-29T03:18:50.706Z,34.73
2019-04-29T03:23:56.331Z,33.30
2019-04-29T03:29:01.912Z,36.07
2019-04-29T03:34:07.597Z,41.83
2019-04-29T03:39:13.252Z,41.60
2019-04-29T03:44:18.904Z,36.93
2019-04-29T03:49:24.536Z,38.20
2019-04-29T03:54:30.181Z,41.23
2019-04-29T03:59:35.735Z,34.90
2019-04-29T04:04:55.086Z,22.93
2019-04-29T04:10:00.718Z,24.20
2019-04-29T04:15:08.110Z,33.27
2019-04-29T04:20:14.638Z,26.47
2019-04-29T04:25:20.410Z,26.10
2019-04-29T04:30:26.282Z,25.70
2019-04-29T04:35:31.901Z,26.13
2019-04-29T04:40:42.092Z,26.90
2019-04-29T04:45:47.843Z,28.23
2019-04-29T04:50:53.636Z,32.87
2019-04-29T04:56:01.277Z,29.53
2019-04-29T05:01:07.025Z,26.40
2019-04-29T05:06:12.898Z,34.07
2019-04-29T05:11:18.832Z,37.03
2019-04-29T05:16:24.618Z,33.93
2019-04-29T05:21:30.333Z,40.37
2019-04-29T05:26:35.967Z,50.47
2019-04-29T05:31:41.852Z,50.97
2019-04-29T05:36:55.591Z,48.37
2019-04-29T05:42:01.777Z,52.03
2019-04-29T05:47:09.175Z,57.17
2019-04-29T05:52:19.443Z,57.80
2019-04-29T05:57:26.985Z,53.43
2019-04-29T06:02:35.112Z,58.37
2019-04-29T06:07:40.233Z,61.10
2019-04-29T06:12:46.138Z,51.07
2019-04-29T06:17:52.112Z,60.13
2019-04-29T06:22:57.882Z,56.40
2019-04-29T06:28:03.937Z,77.60
2019-04-29T06:33:10.647Z,61.47
2019-04-29T06:38:16.514Z,66.87
2019-04-29T06:43:24.692Z,68.30
2019-04-29T06:48:29.796Z,55.30
2019-04-29T06:53:35.654Z,35.50
2019-04-29T06:58:41.429Z,33.90
2019-04-29T07:03:47.291Z,27.97
2019-04-29T07:08:53.251Z,23.07
2019-04-29T07:13:59.368Z,24.47
2019-04-29T07:19:05.326Z,26.20
2019-04-29T07:24:11.298Z,25.93
2019-04-29T07:29:17.795Z,24.73
2019-04-29T07:34:28.885Z,21.87
2019-04-29T07:39:33.505Z,28.13
2019-04-29T07:44:44.296Z,27.93
2019-04-29T07:49:51.487Z,24.90
2019-04-29T07:54:56.317Z,22.23
2019-04-29T08:00:02.098Z,21.57
2019-04-29T08:05:09.407Z,23.80
2019-04-29T08:10:23.451Z,18.13
2019-04-29T08:15:22.956Z,16.70
2019-04-29T08:20:28.845Z,17.77
2019-04-29T08:25:34.738Z,23.87
2019-04-29T08:30:41.911Z,16.23
2019-04-29T08:35:47.952Z,20.67
2019-04-29T08:40:54.084Z,14.43
2019-04-29T08:46:13.427Z,13.53
2019-04-29T08:51:19.345Z,17.13
2019-04-29T08:56:25.125Z,18.17
2019-04-29T09:01:34.182Z,11.80
2019-04-29T09:06:38.701Z,18.20
2019-04-29T09:11:47.940Z,14.57
2019-04-29T09:16:52.487Z,15.17
2019-04-29T09:21:59.901Z,16.43
2019-04-29T09:27:19.187Z,13.63
2019-04-29T09:32:25.459Z,10.80
2019-04-29T09:37:31.334Z,13.00
2019-04-29T09:42:45.532Z,13.60
2019-04-29T09:47:49.013Z,14.97
2019-04-29T09:52:54.877Z,14.73
2019-04-29T09:58:00.707Z,16.63
2019-04-29T10:03:23.329Z,14.50
2019-04-29T10:08:29.246Z,12.00
2019-04-29T10:13:35.062Z,15.77
2019-04-29T10:18:42.599Z,13.80
2019-04-29T10:23:48.474Z,15.33
2019-04-29T10:28:55.869Z,14.37
2019-04-29T10:34:01.721Z,13.23
2019-04-29T10:39:22.744Z,14.23
2019-04-29T10:44:37.613Z,14.00
2019-04-29T10:49:53.948Z,14.70
2019-04-29T10:55:00.333Z,14.03
2019-04-29T11:00:10.347Z,12.90
2019-04-29T11:05:28.063Z,8.77
2019-04-29T11:10:33.928Z,11.13
2019-04-29T11:15:44.982Z,12.03
2019-04-29T11:20:53.846Z,10.03
2019-04-29T11:26:04.483Z,9.00
2019-04-29T11:31:13.997Z,10.07
2019-04-29T11:36:29.062Z,9.80
2019-04-29T11:41:34.925Z,12.67
2019-04-29T11:46:44.718Z,14.77
2019-04-29T11:52:08.585Z,11.13
2019-04-29T11:56:56.141Z,12.97
2019-04-29T12:02:07.751Z,10.63
2019-04-29T12:07:13.636Z,11.37
2019-04-29T12:12:20.932Z,12.63
2019-04-29T12:17:34.425Z,11.37
2019-04-29T12:22:48.514Z,21.23
2019-04-29T12:27:52.847Z,11.63
2019-04-29T12:33:01.394Z,15.80
2019-04-29T12:38:23.699Z,10.70
2019-04-29T12:43:34.395Z,12.57
2019-04-29T12:48:40.436Z,9.07
2019-04-29T12:53:46.220Z,8.17
2019-04-29T12:58:55.265Z,9.97
2019-04-29T13:04:17.584Z,6.90
2019-04-29T13:09:42.325Z,4.47
2019-04-29T13:15:07.843Z,8.13
2019-04-29T13:20:13.530Z,6.50
2019-04-29T13:25:19.753Z,7.73
2019-04-29T13:30:26.577Z,4.67
2019-04-29T13:35:32.410Z,6.13
2019-04-29T13:40:39.486Z,7.90
2019-04-29T13:45:47.022Z,4.67
2019-04-29T13:51:06.452Z,4.87
2019-04-29T13:56:32.263Z,7.43
2019-04-29T14:01:29.851Z,4.70
2019-04-29T14:06:29.903Z,5.90
2019-04-29T14:11:35.707Z,6.57
2019-04-29T14:16:43.160Z,4.27
2019-04-29T14:21:48.851Z,5.70
2019-04-29T14:26:54.536Z,6.10
2019-04-29T14:32:01.390Z,5.20
2019-04-29T14:37:20.036Z,7.80
2019-04-29T14:42:17.377Z,4.33
2019-04-29T14:47:24.697Z,6.23
2019-04-29T14:52:30.824Z,4.50
2019-04-29T14:57:36.715Z,6.10
2019-04-29T15:02:42.538Z,5.37
2019-04-29T15:07:48.526Z,4.47
2019-04-29T15:13:01.506Z,4.90
2019-04-29T15:18:15.850Z,3.70
2019-04-29T15:23:28.488Z,3.30
2019-04-29T15:28:25.315Z,4.57
2019-04-29T15:33:34.664Z,8.53
2019-04-29T15:38:38.719Z,5.45
2019-04-29T15:43:47.632Z,3.00
2019-04-29T15:48:53.346Z,4.23
2019-04-29T15:53:59.025Z,4.20
2019-04-29T15:59:08.817Z,5.17
2019-04-29T16:04:13.770Z,5.87
2019-04-29T16:09:23.688Z,4.87
2019-04-29T16:14:28.537Z,5.53
2019-04-29T16:19:34.309Z,4.17
2019-04-29T16:24:40.138Z,3.77
2019-04-29T16:29:51.575Z,2.60
2019-04-29T16:34:54.956Z,4.30
2019-04-29T16:40:01.334Z,3.67
2019-04-29T16:45:12.022Z,4.47
2019-04-29T16:50:16.397Z,4.43
2019-04-29T16:55:22.130Z,4.37
2019-04-29T17:00:29.484Z,5.87
2019-04-29T17:05:35.274Z,4.10
2019-04-29T17:10:46.016Z,5.63
2019-04-29T17:15:52.575Z,5.40
2019-04-29T17:21:04.749Z,6.07
2019-04-29T17:26:08.042Z,6.40
2019-04-29T17:31:16.494Z,5.93
2019-04-29T17:36:25.830Z,5.93
2019-04-29T17:41:31.911Z,4.53
2019-04-29T17:46:48.531Z,4.57
2019-04-29T17:52:01.479Z,5.60
2019-04-29T17:57:25.116Z,4.40
2019-04-29T18:02:30.617Z,6.03
2019-04-29T18:07:44.997Z,5.00
2019-04-29T18:12:48.559Z,5.70
2019-04-29T18:17:55.892Z,5.53
2019-04-29T18:23:15.853Z,5.47
2019-04-29T18:28:21.078Z,7.00
2019-04-29T18:33:30.256Z,5.47
2019-04-29T18:38:35.048Z,4.63
2019-04-29T18:43:41.084Z,4.23
2019-04-29T18:48:46.958Z,7.03
2019-04-29T18:53:52.875Z,6.30
2019-04-29T18:58:58.645Z,11.67
2019-04-29T19:04:10.239Z,7.93
2019-04-29T19:09:19.855Z,5.93
2019-04-29T19:14:26.848Z,5.03
2019-04-29T19:19:34.818Z,5.30
2019-04-29T19:24:38.286Z,6.87
2019-04-29T19:29:45.291Z,6.67
2019-04-29T19:34:54.927Z,5.47
2019-04-29T19:39:59.672Z,6.97
2019-04-29T19:45:13.242Z,6.53
2019-04-29T19:50:19.502Z,6.40
2019-04-29T19:55:25.547Z,5.13
2019-04-29T20:00:32.083Z,5.37
2019-04-29T20:06:07.421Z,8.80
2019-04-29T20:11:12.283Z,5.33
2019-04-29T20:16:23.058Z,7.00
2019-04-29T20:21:29.309Z,7.23
2019-04-29T20:26:35.981Z,8.60
2019-04-29T20:31:48.596Z,6.73
2019-04-29T20:36:49.680Z,6.57
2019-04-29T20:42:00.656Z,7.63
2019-04-29T20:47:19.126Z,6.97
2019-04-29T20:52:29.622Z,7.27
2019-04-29T20:57:36.021Z,12.40
2019-04-29T21:02:42.133Z,8.37
2019-04-29T21:07:49.220Z,7.13
2019-04-29T21:13:02.837Z,10.10
2019-04-29T21:18:10.274Z,6.83
2019-04-29T21:23:17.138Z,8.60
2019-04-29T21:28:22.934Z,8.03
2019-04-29T21:33:31.151Z,8.90
2019-04-29T21:38:38.047Z,10.50
2019-04-29T21:43:53.527Z,7.83
2019-04-29T21:48:57.378Z,5.57
2019-04-29T21:54:03.589Z,10.17
2019-04-29T21:59:12.277Z,10.17
2019-04-29T22:04:18.346Z,9.60
2019-04-29T22:09:35.854Z,6.93
2019-04-29T22:14:32.753Z,8.77
2019-04-29T22:19:39.425Z,7.17
2019-04-29T22:24:45.805Z,10.67
2019-04-29T22:29:51.652Z,6.80
2019-04-29T22:35:01.167Z,8.13
2019-04-29T22:40:09.988Z,6.47
2019-04-29T22:45:15.819Z,6.83
2019-04-29T22:50:21.561Z,7.13
2019-04-29T22:55:30.784Z,8.77
2019-04-29T23:00:36.257Z,6.60
2019-04-29T23:05:43.236Z,7.13
2019-04-29T23:10:49.148Z,10.07
2019-04-29T23:16:00.979Z,7.63
2019-04-29T23:21:05.238Z,10.47
2019-04-29T23:26:11.017Z,7.77
2019-04-29T23:31:16.669Z,9.97
2019-04-29T23:36:22.359Z,7.63
2019-04-29T23:41:33.102Z,7.80
2019-04-29T23:46:35.835Z,7.23
2019-04-29T23:51:41.707Z,9.60
2019-04-29T23:56:56.554Z,7.60
